East Maine, New York
Current Conditions -  °F | °C
As of 8:00 PM on Monday 22 Dec 2014 (Local Time) from KBGM Reporting Station
Haze Haze  
Wind Chill: 26°   Ceiling: 400
Heat Index: 33°   Visibility: 4mi
Dew Point: 32°   Wind: 8mph
Humidity: 96%   Direction: 150°SSE
Pressure: 30.12"   Gusts: NA
Location:  42.1768°N, 76.0035°W
Report Text: KBGM 230100Z 15007KT 4SM BR OVC004 01/00 A3012 RMK AO2 T00060000
Loading
Personal Weather Stations






























Interactive Weather Map New forecast layout! Learn more

10-Day Weather Forecast

Advertisements
Track Severe Weather on mobile